Time;durP1;ratioP1;P1;durP2;ratioP2;P2;SDS_P1;SDS_P2;PMS_P1;PMS_P2;Temp;Humidity;BMP_temperature;BMP_pressure;BME280_temperature;BME280_humidity;BME280_pressure;Samples;Min_cycle;Max_cycle;Signal;HPM_P1;HPM_P2
2022/01/20 00:32:25;;;;;;;2.13;0.30;;;4.90;99.90;;;;;;20632240;28;20517;-44
2022/01/20 00:42:26;;;;;;;5.05;0.47;;;5.00;99.90;;;;;;20635092;28;20262;-44
2022/01/20 00:52:27;;;;;;;1.60;1.10;;;5.10;99.90;;;;;;20606900;28;20202;-44
2022/01/20 01:02:27;;;;;;;5.40;0.70;;;5.20;99.90;;;;;;20619597;28;20289;-44
2022/01/20 01:12:40;;;;;;;3.72;1.15;;;5.30;99.90;;;;;;20637975;28;20432;-44
2022/01/20 01:22:41;;;;;;;2.47;0.40;;;5.30;99.90;;;;;;20641904;28;20039;-44
2022/01/20 01:32:51;;;;;;;4.78;0.57;;;5.20;99.90;;;;;;20634924;28;20061;-44
2022/01/20 01:42:53;;;;;;;3.38;0.95;;;5.20;99.90;;;;;;20625864;28;20129;-44
2022/01/20 01:52:57;;;;;;;10.70;1.00;;;5.20;99.90;;;;;;20630436;28;20043;-44
2022/01/20 02:02:59;;;;;;;2.30;0.60;;;5.40;99.90;;;;;;20633354;28;20128;-45
2022/01/20 02:23:21;;;;;;;2.92;0.80;;;5.50;99.90;;;;;;20628330;28;20030;-44
2022/01/20 02:33:26;;;;;;;6.35;0.90;;;5.40;99.90;;;;;;20629398;28;20050;-45
2022/01/20 02:53:46;;;;;;;3.22;0.30;;;5.40;99.90;;;;;;20624889;28;20054;-44
2022/01/20 03:03:47;;;;;;;2.30;0.47;;;5.10;99.90;;;;;;20616754;28;20054;-44
2022/01/20 03:13:48;;;;;;;6.63;0.73;;;4.90;99.90;;;;;;20632085;28;20145;-44
2022/01/20 03:23:48;;;;;;;1.00;0.63;;;5.00;99.90;;;;;;20634163;28;20289;-44
2022/01/20 03:33:49;;;;;;;5.13;0.22;;;5.10;99.90;;;;;;20634319;28;20320;-44
2022/01/20 03:43:50;;;;;;;1.40;0.20;;;5.00;99.90;;;;;;20616856;28;20047;-44
2022/01/20 03:53:54;;;;;;;1.90;0.13;;;5.00;99.90;;;;;;20600829;28;20055;-44
2022/01/20 04:03:54;;;;;;;0.52;0.17;;;4.90;99.90;;;;;;20616590;28;20297;-44
2022/01/20 04:13:56;;;;;;;0.50;0.23;;;4.80;99.90;;;;;;20627132;28;20046;-44
2022/01/20 04:23:59;;;;;;;0.77;0.35;;;4.80;99.90;;;;;;20635884;28;20297;-44
2022/01/20 04:34:00;;;;;;;1.40;0.63;;;4.90;99.90;;;;;;20641152;28;20189;-44
2022/01/20 04:44:02;;;;;;;3.20;0.60;;;5.00;99.90;;;;;;20629177;28;20616;-43
2022/01/20 05:04:24;;;;;;;6.20;0.43;;;4.80;99.90;;;;;;20634560;28;20034;-44
2022/01/20 05:14:26;;;;;;;1.08;0.30;;;4.80;99.90;;;;;;20648014;28;20054;-44
2022/01/20 05:24:27;;;;;;;8.88;0.70;;;4.60;99.90;;;;;;20640542;28;20051;-44
2022/01/20 05:34:31;;;;;;;3.25;0.70;;;4.70;99.90;;;;;;20626359;28;21166;-44
2022/01/20 05:44:31;;;;;;;5.53;1.55;;;4.90;99.90;;;;;;20628184;28;20121;-44
2022/01/20 05:54:32;;;;;;;2.33;0.33;;;4.80;99.90;;;;;;20636131;28;20102;-44
2022/01/20 06:04:33;;;;;;;1.20;0.47;;;4.70;99.90;;;;;;20636127;28;21893;-44
2022/01/20 06:14:33;;;;;;;0.70;0.40;;;4.80;99.90;;;;;;20632112;28;20309;-44
2022/01/20 06:24:34;;;;;;;2.00;0.53;;;4.70;99.90;;;;;;20611983;28;20042;-44
2022/01/20 06:34:35;;;;;;;6.20;0.67;;;4.60;99.90;;;;;;20643009;28;20317;-44
2022/01/20 06:44:35;;;;;;;1.50;0.60;;;4.60;99.90;;;;;;20619845;28;20335;-44
2022/01/20 06:54:36;;;;;;;8.00;0.68;;;4.60;99.90;;;;;;20575539;28;20051;-44
2022/01/20 07:04:39;;;;;;;3.08;0.47;;;4.70;99.90;;;;;;20574918;28;20042;-43
2022/01/20 07:14:40;;;;;;;4.38;0.50;;;4.50;99.90;;;;;;20579302;28;20112;-44
2022/01/20 07:24:41;;;;;;;4.03;0.93;;;4.40;99.90;;;;;;20577409;28;20042;-44
2022/01/20 07:34:42;;;;;;;5.75;0.80;;;4.30;99.90;;;;;;20573468;28;20054;-44
2022/01/20 07:44:43;;;;;;;1.95;0.20;;;4.30;99.90;;;;;;20554131;28;20192;-44
2022/01/20 07:54:43;;;;;;;5.03;0.63;;;4.20;99.90;;;;;;20577428;28;21398;-44
2022/01/20 08:04:44;;;;;;;12.87;1.07;;;4.10;99.90;;;;;;20583135;28;20132;-44
2022/01/20 08:14:45;;;;;;;2.25;0.93;;;4.10;99.90;;;;;;20587956;28;20388;-44
2022/01/20 08:24:51;;;;;;;2.00;0.65;;;4.10;99.90;;;;;;20582470;28;20117;-44
2022/01/20 08:34:52;;;;;;;6.37;0.80;;;4.10;99.90;;;;;;20585596;28;20050;-44
2022/01/20 08:44:53;;;;;;;1.73;0.50;;;4.20;99.90;;;;;;20552024;28;20046;-44
2022/01/20 08:55:00;;;;;;;;;;;4.30;99.90;;;;;;20525901;28;20051;-43
2022/01/20 09:05:01;;;;;;;1.40;0.45;;;4.60;99.90;;;;;;20501399;28;20429;-43
2022/01/20 09:25:28;;;;;;;2.67;0.63;;;4.80;99.90;;;;;;20492103;28;20047;-44
2022/01/20 09:35:33;;;;;;;7.88;0.82;;;5.10;99.90;;;;;;20507926;28;20057;-44
2022/01/20 09:45:34;;;;;;;0.85;0.25;;;5.30;99.90;;;;;;20559118;28;20084;-43
2022/01/20 09:55:36;;;;;;;2.33;0.38;;;5.40;99.90;;;;;;20590146;28;20153;-43
2022/01/20 10:06:04;;;;;;;7.90;1.13;;;5.30;99.90;;;;;;20590498;28;20046;-44
2022/01/20 10:16:10;;;;;;;5.18;0.45;;;5.50;99.90;;;;;;20575254;28;20083;-44
2022/01/20 10:26:13;;;;;;;1.25;0.20;;;5.50;99.90;;;;;;20587097;28;20410;-43
2022/01/20 10:36:14;;;;;;;3.20;0.57;;;5.50;99.90;;;;;;20566611;28;20242;-43
2022/01/20 10:46:16;;;;;;;5.97;0.63;;;5.90;99.90;;;;;;20577322;28;20046;-44
2022/01/20 10:56:18;;;;;;;1.75;0.30;;;6.00;99.90;;;;;;20574444;28;20084;-44
2022/01/20 11:06:19;;;;;;;1.20;0.25;;;5.80;99.90;;;;;;20545219;28;20039;-44
2022/01/20 11:16:21;;;;;;;1.52;0.30;;;5.90;99.90;;;;;;20555147;28;20050;-44
2022/01/20 11:26:22;;;;;;;1.27;0.30;;;6.20;99.90;;;;;;20549932;28;20042;-44
2022/01/20 11:36:32;;;;;;;6.70;0.65;;;6.00;99.90;;;;;;20583304;28;20049;-43
2022/01/20 11:46:38;;;;;;;2.80;0.95;;;5.90;99.90;;;;;;20566251;28;20108;-44
2022/01/20 11:56:41;;;;;;;1.40;0.60;;;5.90;99.90;;;;;;20569236;28;20508;-44
2022/01/20 12:06:45;;;;;;;1.02;0.30;;;6.90;99.90;;;;;;20571459;28;20347;-44
2022/01/20 12:16:45;;;;;;;3.60;0.77;;;7.60;99.90;;;;;;20559538;28;20419;-44
2022/01/20 12:26:46;;;;;;;6.93;0.80;;;6.90;99.90;;;;;;20571096;28;20438;-44
2022/01/20 12:36:51;;;;;;;0.85;0.20;;;5.80;99.90;;;;;;20556298;28;20566;-43
2022/01/20 12:46:52;;;;;;;3.03;0.22;;;5.90;99.90;;;;;;20581660;28;20042;-44
2022/01/20 12:56:56;;;;;;;4.37;0.43;;;7.10;99.90;;;;;;20578226;28;20043;-44
2022/01/20 13:07:02;;;;;;;2.35;0.47;;;7.60;99.90;;;;;;20574796;28;20290;-44
2022/01/20 13:17:04;;;;;;;2.25;0.60;;;7.40;99.90;;;;;;20564380;28;20042;-44
2022/01/20 13:27:06;;;;;;;2.72;0.38;;;6.70;99.90;;;;;;20565354;28;20515;-44
2022/01/20 13:37:14;;;;;;;7.50;0.70;;;6.40;99.90;;;;;;20551132;28;20046;-44
2022/01/20 13:47:14;;;;;;;9.63;0.45;;;6.40;99.90;;;;;;20566036;28;20509;-44
2022/01/20 13:57:16;;;;;;;5.10;0.73;;;6.30;99.90;;;;;;20563781;28;20429;-43
2022/01/20 14:07:18;;;;;;;2.13;0.32;;;5.80;99.90;;;;;;20564911;28;20161;-43
2022/01/20 14:17:21;;;;;;;7.22;0.60;;;5.40;99.90;;;;;;20564573;28;20109;-44
2022/01/20 14:27:22;;;;;;;1.50;0.20;;;5.20;99.90;;;;;;20568290;28;20458;-44
2022/01/20 14:37:23;;;;;;;1.58;0.43;;;5.20;99.90;;;;;;20566757;28;20075;-45
2022/01/20 14:47:24;;;;;;;1.85;1.35;;;5.20;99.90;;;;;;20620674;28;20086;-43
2022/01/20 14:57:25;;;;;;;2.33;0.70;;;4.80;99.90;;;;;;20625657;28;20506;-43
2022/01/20 15:07:25;;;;;;;2.03;0.73;;;5.00;99.90;;;;;;20619119;28;20066;-43
2022/01/20 15:17:28;;;;;;;4.65;0.82;;;5.00;99.90;;;;;;20616083;28;20046;-44
2022/01/20 15:27:30;;;;;;;3.40;0.50;;;4.80;99.90;;;;;;20597400;28;20037;-43
2022/01/20 15:37:30;;;;;;;2.58;0.45;;;4.70;99.90;;;;;;20605044;28;20141;-44
2022/01/20 15:47:31;;;;;;;7.15;1.98;;;4.70;99.90;;;;;;20622437;28;20348;-44
2022/01/20 15:57:32;;;;;;;3.42;0.60;;;4.60;99.90;;;;;;20604221;28;20396;-44
2022/01/20 16:07:33;;;;;;;0.98;0.32;;;4.70;99.90;;;;;;20615234;28;20030;-43
2022/01/20 16:17:34;;;;;;;1.77;0.15;;;4.70;99.90;;;;;;20616729;28;20049;-44
2022/01/20 16:27:35;;;;;;;1.80;0.32;;;4.30;99.90;;;;;;20614183;28;20051;-43
2022/01/20 16:37:35;;;;;;;0.35;0.10;;;3.90;99.90;;;;;;20606813;28;21423;-44
2022/01/20 16:47:38;;;;;;;1.23;0.28;;;3.70;99.90;;;;;;20621290;28;20083;-44
2022/01/20 16:57:40;;;;;;;4.75;0.30;;;3.70;99.90;;;;;;20624882;28;20082;-43
2022/01/20 17:07:41;;;;;;;3.42;0.25;;;3.40;99.90;;;;;;20622845;28;20038;-43
2022/01/20 17:17:41;;;;;;;4.85;0.63;;;3.20;99.90;;;;;;20613911;28;20121;-43
2022/01/20 17:27:42;;;;;;;4.47;0.37;;;3.10;99.90;;;;;;20619412;28;20101;-43
2022/01/20 17:37:43;;;;;;;3.33;0.90;;;3.00;99.90;;;;;;20622671;28;20329;-43
2022/01/20 17:47:48;;;;;;;1.27;0.32;;;3.20;99.90;;;;;;20631151;28;20434;-44
2022/01/20 17:57:50;;;;;;;1.30;0.60;;;3.30;99.90;;;;;;20619409;28;20062;-43
2022/01/20 18:07:52;;;;;;;0.85;0.45;;;3.20;99.90;;;;;;20617856;28;20041;-45
2022/01/20 18:17:52;;;;;;;1.00;0.40;;;3.10;99.90;;;;;;20614761;28;20038;-44
2022/01/20 18:27:53;;;;;;;4.63;0.50;;;3.10;99.90;;;;;;20626427;28;20126;-44
2022/01/20 18:37:55;;;;;;;2.35;0.43;;;3.10;99.90;;;;;;20616329;28;20566;-44
2022/01/20 18:47:56;;;;;;;2.45;0.63;;;3.10;99.90;;;;;;20627482;28;20545;-44
2022/01/20 18:57:57;;;;;;;6.20;0.97;;;3.20;99.90;;;;;;20638071;28;20053;-44
2022/01/20 19:07:58;;;;;;;2.45;0.20;;;3.20;99.90;;;;;;20614161;28;20579;-44
2022/01/20 19:17:59;;;;;;;4.15;0.85;;;3.30;99.90;;;;;;20654717;28;20053;-44
2022/01/20 19:28:02;;;;;;;2.75;0.43;;;3.20;99.90;;;;;;20642781;28;20383;-44
2022/01/20 19:38:04;;;;;;;1.17;0.45;;;3.20;99.90;;;;;;20665176;28;20413;-43
2022/01/20 19:48:04;;;;;;;4.72;1.92;;;3.00;99.90;;;;;;20630711;28;20502;-43
2022/01/20 19:58:06;;;;;;;6.35;0.88;;;2.80;99.90;;;;;;20646508;28;20042;-44
2022/01/20 20:08:08;;;;;;;5.22;1.65;;;2.80;99.90;;;;;;20647385;28;20045;-43
2022/01/20 20:18:09;;;;;;;2.20;0.45;;;2.70;99.90;;;;;;20647679;28;20057;-44
2022/01/20 20:28:10;;;;;;;3.67;0.77;;;2.80;99.90;;;;;;20642673;28;20266;-44
2022/01/20 20:38:10;;;;;;;5.93;0.70;;;2.70;99.90;;;;;;20633531;28;20047;-44
2022/01/20 20:48:11;;;;;;;5.50;0.60;;;2.80;99.90;;;;;;20625077;28;20102;-44
2022/01/20 20:58:12;;;;;;;6.25;0.40;;;2.70;99.90;;;;;;20628212;28;20060;-43
2022/01/20 21:08:13;;;;;;;0.57;0.33;;;2.90;99.90;;;;;;20635152;28;20042;-43
2022/01/20 21:18:14;;;;;;;0.28;0.17;;;3.20;99.90;;;;;;20623783;28;20288;-43
2022/01/20 21:28:15;;;;;;;2.58;0.40;;;3.10;99.90;;;;;;20616448;28;20038;-44
2022/01/20 21:38:15;;;;;;;3.28;0.50;;;3.00;99.90;;;;;;20614563;28;20394;-43
2022/01/20 21:48:16;;;;;;;3.00;0.50;;;2.90;99.90;;;;;;20591754;28;20051;-44
2022/01/20 21:58:17;;;;;;;2.63;1.10;;;2.70;99.90;;;;;;20556055;28;20305;-44
2022/01/20 22:08:18;;;;;;;1.95;0.47;;;2.40;99.90;;;;;;20551777;28;20317;-43
2022/01/20 22:18:20;;;;;;;1.02;0.63;;;2.20;99.90;;;;;;20560586;28;20042;-43
2022/01/20 22:28:21;;;;;;;6.20;0.80;;;2.00;99.90;;;;;;20553616;28;20860;-43
2022/01/20 22:38:23;;;;;;;2.13;0.85;;;1.90;99.90;;;;;;20550325;28;20069;-43
2022/01/20 22:48:35;;;;;;;2.33;0.77;;;1.90;99.90;;;;;;20555950;28;20062;-43
2022/01/20 22:58:37;;;;;;;4.13;0.70;;;1.80;99.90;;;;;;20539150;28;20524;-43
2022/01/20 23:08:37;;;;;;;2.15;0.60;;;1.60;99.90;;;;;;20552195;28;20250;-43
2022/01/20 23:29:01;;;;;;;0.80;0.30;;;1.50;99.90;;;;;;20547639;28;20364;-43
2022/01/20 23:39:08;;;;;;;0.30;0.20;;;1.40;99.90;;;;;;20550570;28;20038;-43
2022/01/20 23:49:09;;;;;;;1.52;0.30;;;1.40;99.90;;;;;;20545957;28;20696;-43
2022/01/20 23:59:11;;;;;;;1.55;1.38;;;1.40;99.90;;;;;;20557281;28;20042;-43
